Martin, Oklahoma
Current Conditions -  °F | °C
As of 8:53 AM on Friday 19 Dec 2014 (Local Time) from KMKO Reporting Station
Moderate Fog Moderate Fog  
Wind Chill: 34°   Ceiling: 200
Heat Index: 40°   Visibility: 0.5mi
Dew Point: 38°   Wind: 9mph
Humidity: 93%   Direction: 360°N
Pressure: 30.26"   Gusts: NA
Location:  35.6818°N, 95.3578°W
Report Text: KMKO 191453Z AUTO 36008KT 1/2SM FG OVC002 04/03 A3026 RMK AO2 SLP248 T00440033 51010
Loading
Personal Weather Stations






























Interactive Weather Map New forecast layout! Learn more

10-Day Weather Forecast

Advertisements
Track Severe Weather on mobile